sensor_id;sensor_type;location;lat;lon;timestamp;pressure;altitude;pressure_sealevel;temperature;humidity
12969;BME280;6549;53.128;8.182;2023-02-11T00:02:12;102819.16;;;5.67;100.00
12969;BME280;6549;53.128;8.182;2023-02-11T00:05:12;102804.94;;;5.70;100.00
12969;BME280;6549;53.128;8.182;2023-02-11T00:08:13;102804.53;;;5.77;100.00
12969;BME280;6549;53.128;8.182;2023-02-11T00:11:17;102800.50;;;5.74;100.00
12969;BME280;6549;53.128;8.182;2023-02-11T00:14:18;102797.78;;;5.74;100.00
12969;BME280;6549;53.128;8.182;2023-02-11T00:17:18;102803.53;;;5.73;100.00
12969;BME280;6549;53.128;8.182;2023-02-11T00:20:18;102816.16;;;5.69;100.00
12969;BME280;6549;53.128;8.182;2023-02-11T00:23:19;102820.69;;;5.73;100.00
12969;BME280;6549;53.128;8.182;2023-02-11T00:26:23;102816.25;;;5.77;100.00
12969;BME280;6549;53.128;8.182;2023-02-11T00:29:23;102819.19;;;5.81;100.00
12969;BME280;6549;53.128;8.182;2023-02-11T00:32:24;102823.81;;;5.80;100.00
12969;BME280;6549;53.128;8.182;2023-02-11T00:35:24;102794.94;;;5.79;100.00
12969;BME280;6549;53.128;8.182;2023-02-11T00:38:24;102789.78;;;5.78;100.00
12969;BME280;6549;53.128;8.182;2023-02-11T00:41:25;102761.59;;;5.82;100.00
12969;BME280;6549;53.128;8.182;2023-02-11T00:44:25;102766.75;;;5.84;100.00
12969;BME280;6549;53.128;8.182;2023-02-11T00:47:25;102757.75;;;5.83;100.00
12969;BME280;6549;53.128;8.182;2023-02-11T00:50:26;102767.25;;;5.86;100.00
12969;BME280;6549;53.128;8.182;2023-02-11T00:53:26;102762.06;;;5.84;100.00
12969;BME280;6549;53.128;8.182;2023-02-11T00:56:26;102769.38;;;5.89;100.00
12969;BME280;6549;53.128;8.182;2023-02-11T00:59:27;102766.16;;;5.87;100.00
12969;BME280;6549;53.128;8.182;2023-02-11T01:02:27;102778.38;;;5.90;100.00
12969;BME280;6549;53.128;8.182;2023-02-11T01:05:28;102778.38;;;5.90;100.00
12969;BME280;6549;53.128;8.182;2023-02-11T01:08:28;102777.56;;;5.89;100.00
12969;BME280;6549;53.128;8.182;2023-02-11T01:11:29;102772.81;;;5.95;100.00
12969;BME280;6549;53.128;8.182;2023-02-11T01:14:29;102759.19;;;5.95;100.00
12969;BME280;6549;53.128;8.182;2023-02-11T01:17:29;102757.56;;;5.94;100.00
12969;BME280;6549;53.128;8.182;2023-02-11T01:20:30;102769.78;;;5.96;100.00
12969;BME280;6549;53.128;8.182;2023-02-11T01:23:30;102763.53;;;5.96;100.00
12969;BME280;6549;53.128;8.182;2023-02-11T01:26:31;102761.00;;;5.99;100.00
12969;BME280;6549;53.128;8.182;2023-02-11T01:29:31;102768.97;;;5.96;100.00
12969;BME280;6549;53.128;8.182;2023-02-11T01:32:32;102764.22;;;6.01;100.00
12969;BME280;6549;53.128;8.182;2023-02-11T01:35:33;102771.09;;;5.99;100.00
12969;BME280;6549;53.128;8.182;2023-02-11T01:38:34;102772.72;;;6.00;100.00
12969;BME280;6549;53.128;8.182;2023-02-11T01:41:34;102763.44;;;6.01;100.00
12969;BME280;6549;53.128;8.182;2023-02-11T01:44:37;102768.56;;;6.02;100.00
12969;BME280;6549;53.128;8.182;2023-02-11T01:47:38;102773.72;;;6.04;100.00
12969;BME280;6549;53.128;8.182;2023-02-11T01:50:40;102771.00;;;6.04;100.00
12969;BME280;6549;53.128;8.182;2023-02-11T01:53:42;102772.09;;;6.03;100.00
12969;BME280;6549;53.128;8.182;2023-02-11T01:57:03;102772.31;;;6.06;100.00
12969;BME280;6549;53.128;8.182;2023-02-11T02:00:26;102756.72;;;6.07;100.00
12969;BME280;6549;53.128;8.182;2023-02-11T02:03:29;102748.06;;;6.05;100.00
12969;BME280;6549;53.128;8.182;2023-02-11T02:06:34;102751.06;;;6.03;100.00
12969;BME280;6549;53.128;8.182;2023-02-11T02:09:40;102748.66;;;6.02;100.00
12969;BME280;6549;53.128;8.182;2023-02-11T02:12:42;102747.25;;;6.04;100.00
12969;BME280;6549;53.128;8.182;2023-02-11T02:15:59;102748.06;;;6.05;100.00
12969;BME280;6549;53.128;8.182;2023-02-11T02:22:53;102741.84;;;6.13;100.00
12969;BME280;6549;53.128;8.182;2023-02-11T02:29:30;102722.88;;;6.08;100.00
12969;BME280;6549;53.128;8.182;2023-02-11T02:36:08;102710.53;;;6.10;100.00
12969;BME280;6549;53.128;8.182;2023-02-11T02:39:19;102699.47;;;6.15;100.00
12969;BME280;6549;53.128;8.182;2023-02-11T02:42:23;102693.84;;;6.12;100.00
12969;BME280;6549;53.128;8.182;2023-02-11T02:45:24;102696.09;;;6.10;100.00
12969;BME280;6549;53.128;8.182;2023-02-11T02:48:29;102703.94;;;6.11;100.00
12969;BME280;6549;53.128;8.182;2023-02-11T02:51:45;102699.91;;;6.09;100.00
12969;BME280;6549;53.128;8.182;2023-02-11T02:55:11;102697.50;;;6.07;100.00
12969;BME280;6549;53.128;8.182;2023-02-11T03:01:49;102671.88;;;6.17;100.00
12969;BME280;6549;53.128;8.182;2023-02-11T03:05:15;102680.38;;;6.15;100.00
12969;BME280;6549;53.128;8.182;2023-02-11T03:09:00;102695.81;;;6.20;100.00
12969;BME280;6549;53.128;8.182;2023-02-11T03:12:01;102703.53;;;6.18;100.00
12969;BME280;6549;53.128;8.182;2023-02-11T03:15:04;102701.00;;;6.21;100.00
12969;BME280;6549;53.128;8.182;2023-02-11T03:18:08;102695.22;;;6.23;100.00
12969;BME280;6549;53.128;8.182;2023-02-11T03:21:11;102695.81;;;6.20;100.00
12969;BME280;6549;53.128;8.182;2023-02-11T03:24:19;102696.63;;;6.20;100.00
12969;BME280;6549;53.128;8.182;2023-02-11T03:30:39;102694.41;;;6.22;100.00
12969;BME280;6549;53.128;8.182;2023-02-11T03:36:57;102692.00;;;6.21;100.00
12969;BME280;6549;53.128;8.182;2023-02-11T03:40:05;102680.25;;;6.20;100.00
12969;BME280;6549;53.128;8.182;2023-02-11T03:43:22;102681.69;;;6.18;100.00
12969;BME280;6549;53.128;8.182;2023-02-11T03:46:32;102671.88;;;6.17;100.00
12969;BME280;6549;53.128;8.182;2023-02-11T03:49:35;102668.22;;;6.21;100.00
12969;BME280;6549;53.128;8.182;2023-02-11T03:52:37;102673.88;;;6.25;100.00
12969;BME280;6549;53.128;8.182;2023-02-11T03:55:39;102681.75;;;6.26;100.00
12969;BME280;6549;53.128;8.182;2023-02-11T03:58:39;102679.34;;;6.25;100.00
12969;BME280;6549;53.128;8.182;2023-02-11T04:01:39;102673.88;;;6.25;100.00
12969;BME280;6549;53.128;8.182;2023-02-11T04:04:39;102689.50;;;6.33;100.00
12969;BME280;6549;53.128;8.182;2023-02-11T04:07:40;102700.06;;;6.26;100.00
12969;BME280;6549;53.128;8.182;2023-02-11T04:10:41;102692.78;;;6.21;100.00
12969;BME280;6549;53.128;8.182;2023-02-11T04:13:41;102683.31;;;6.19;100.00
12969;BME280;6549;53.128;8.182;2023-02-11T04:16:41;102677.84;;;6.19;100.00
12969;BME280;6549;53.128;8.182;2023-02-11T04:19:42;102691.38;;;6.24;100.00
12969;BME280;6549;53.128;8.182;2023-02-11T04:22:42;102694.59;;;6.26;100.00
12969;BME280;6549;53.128;8.182;2023-02-11T04:25:42;102693.50;;;6.27;100.00
12969;BME280;6549;53.128;8.182;2023-02-11T04:28:42;102699.75;;;6.27;100.00
12969;BME280;6549;53.128;8.182;2023-02-11T04:31:43;102695.13;;;6.28;100.00
12969;BME280;6549;53.128;8.182;2023-02-11T04:34:43;102686.94;;;6.28;100.00
12969;BME280;6549;53.128;8.182;2023-02-11T04:37:43;102687.41;;;6.30;100.00
12969;BME280;6549;53.128;8.182;2023-02-11T04:40:44;102681.94;;;6.30;100.00
12969;BME280;6549;53.128;8.182;2023-02-11T04:43:44;102685.19;;;6.32;100.00
12969;BME280;6549;53.128;8.182;2023-02-11T04:46:44;102688.09;;;6.36;100.00
12969;BME280;6549;53.128;8.182;2023-02-11T04:49:45;102679.97;;;6.44;100.00
12969;BME280;6549;53.128;8.182;2023-02-11T04:52:45;102681.06;;;6.43;100.00
12969;BME280;6549;53.128;8.182;2023-02-11T04:55:48;102685.44;;;6.44;100.00
12969;BME280;6549;53.128;8.182;2023-02-11T04:58:49;102679.78;;;6.41;100.00
12969;BME280;6549;53.128;8.182;2023-02-11T05:01:49;102680.28;;;6.43;100.00
12969;BME280;6549;53.128;8.182;2023-02-11T05:04:50;102674.50;;;6.44;100.00
12969;BME280;6549;53.128;8.182;2023-02-11T05:07:50;102678.75;;;6.50;100.00
12969;BME280;6549;53.128;8.182;2023-02-11T05:10:51;102681.13;;;6.52;100.00
12969;BME280;6549;53.128;8.182;2023-02-11T05:13:51;102677.94;;;6.50;100.00
12969;BME280;6549;53.128;8.182;2023-02-11T05:16:51;102689.34;;;6.52;100.00
12969;BME280;6549;53.128;8.182;2023-02-11T05:19:52;102683.56;;;6.53;100.00
12969;BME280;6549;53.128;8.182;2023-02-11T05:22:52;102687.41;;;6.52;100.00
12969;BME280;6549;53.128;8.182;2023-02-11T05:25:52;102679.22;;;6.52;100.00
12969;BME280;6549;53.128;8.182;2023-02-11T05:28:52;102683.06;;;6.51;100.00
12969;BME280;6549;53.128;8.182;2023-02-11T05:31:53;102686.78;;;6.55;100.00
12969;BME280;6549;53.128;8.182;2023-02-11T05:34:53;102694.97;;;6.55;100.00
12969;BME280;6549;53.128;8.182;2023-02-11T05:37:53;102688.53;;;6.51;100.00
12969;BME280;6549;53.128;8.182;2023-02-11T05:40:54;102684.81;;;6.47;100.00
12969;BME280;6549;53.128;8.182;2023-02-11T05:43:54;102694.63;;;6.48;100.00
12969;BME280;6549;53.128;8.182;2023-02-11T05:46:54;102683.38;;;6.50;100.00
12969;BME280;6549;53.128;8.182;2023-02-11T05:49:55;102684.00;;;6.47;100.00
12969;BME280;6549;53.128;8.182;2023-02-11T05:52:55;102692.00;;;6.43;100.00
12969;BME280;6549;53.128;8.182;2023-02-11T05:55:55;102691.06;;;6.48;100.00
12969;BME280;6549;53.128;8.182;2023-02-11T05:58:58;102688.63;;;6.46;100.00
12969;BME280;6549;53.128;8.182;2023-02-11T06:01:58;102684.16;;;6.42;100.00
12969;BME280;6549;53.128;8.182;2023-02-11T06:04:59;102683.34;;;6.41;100.00
12969;BME280;6549;53.128;8.182;2023-02-11T06:07:59;102681.06;;;6.43;100.00
12969;BME280;6549;53.128;8.182;2023-02-11T06:10:59;102688.16;;;6.44;100.00
12969;BME280;6549;53.128;8.182;2023-02-11T06:14:00;102687.88;;;6.46;100.00
12969;BME280;6549;53.128;8.182;2023-02-11T06:17:00;102689.28;;;6.43;100.00
12969;BME280;6549;53.128;8.182;2023-02-11T06:20:01;102692.50;;;6.45;100.00
12969;BME280;6549;53.128;8.182;2023-02-11T06:23:02;102689.28;;;6.43;100.00
12969;BME280;6549;53.128;8.182;2023-02-11T06:26:05;102684.81;;;6.47;100.00
12969;BME280;6549;53.128;8.182;2023-02-11T06:29:05;102687.88;;;6.46;100.00
12969;BME280;6549;53.128;8.182;2023-02-11T06:32:05;102688.63;;;6.46;100.00
12969;BME280;6549;53.128;8.182;2023-02-11T06:35:06;102696.84;;;6.46;100.00
12969;BME280;6549;53.128;8.182;2023-02-11T06:38:06;102702.28;;;6.46;100.00
12969;BME280;6549;53.128;8.182;2023-02-11T06:41:11;102705.53;;;6.48;100.00
12969;BME280;6549;53.128;8.182;2023-02-11T06:44:12;102696.25;;;6.49;100.00
12969;BME280;6549;53.128;8.182;2023-02-11T06:47:12;102705.25;;;6.50;100.00
12969;BME280;6549;53.128;8.182;2023-02-11T06:50:13;102692.88;;;6.52;100.00
12969;BME280;6549;53.128;8.182;2023-02-11T06:53:13;102689.50;;;6.55;100.00
12969;BME280;6549;53.128;8.182;2023-02-11T06:56:17;102685.25;;;6.63;100.00
12969;BME280;6549;53.128;8.182;2023-02-11T06:59:18;102687.81;;;6.59;100.00
12969;BME280;6549;53.128;8.182;2023-02-11T07:02:19;102679.59;;;6.59;100.00
12969;BME280;6549;53.128;8.182;2023-02-11T07:05:20;102685.53;;;6.61;100.00
12969;BME280;6549;53.128;8.182;2023-02-11T07:08:20;102690.38;;;6.64;100.00
12969;BME280;6549;53.128;8.182;2023-02-11T07:11:26;102686.53;;;6.65;100.00
12969;BME280;6549;53.128;8.182;2023-02-11T07:14:27;102692.97;;;6.69;100.00
12969;BME280;6549;53.128;8.182;2023-02-11T07:17:27;102691.56;;;6.72;100.00
12969;BME280;6549;53.128;8.182;2023-02-11T07:20:27;102688.50;;;6.73;100.00
12969;BME280;6549;53.128;8.182;2023-02-11T07:23:27;102681.63;;;6.76;100.00
12969;BME280;6549;53.128;8.182;2023-02-11T07:26:28;102687.28;;;6.80;100.00
12969;BME280;6549;53.128;8.182;2023-02-11T07:29:28;102691.63;;;6.81;100.00
12969;BME280;6549;53.128;8.182;2023-02-11T07:32:28;102708.81;;;6.81;100.00
12969;BME280;6549;53.128;8.182;2023-02-11T07:35:28;102706.41;;;6.80;100.00
12969;BME280;6549;53.128;8.182;2023-02-11T07:38:30;102707.69;;;6.82;100.00
12969;BME280;6549;53.128;8.182;2023-02-11T07:41:30;102713.66;;;6.84;100.00
12969;BME280;6549;53.128;8.182;2023-02-11T07:44:31;102713.34;;;6.86;100.00
12969;BME280;6549;53.128;8.182;2023-02-11T07:47:33;102720.75;;;6.85;100.00
12969;BME280;6549;53.128;8.182;2023-02-11T07:50:34;102721.56;;;6.86;100.00
12969;BME280;6549;53.128;8.182;2023-02-11T07:53:35;102711.09;;;6.88;100.00
12969;BME280;6549;53.128;8.182;2023-02-11T07:56:35;102715.31;;;6.94;100.00
12969;BME280;6549;53.128;8.182;2023-02-11T07:59:36;102723.03;;;6.92;100.00
12969;BME280;6549;53.128;8.182;2023-02-11T08:02:36;102728.66;;;6.95;100.00
12969;BME280;6549;53.128;8.182;2023-02-11T08:05:37;102739.81;;;6.99;100.00
12969;BME280;6549;53.128;8.182;2023-02-11T08:08:39;102743.81;;;7.01;100.00
12969;BME280;6549;53.128;8.182;2023-02-11T08:11:39;102749.47;;;7.05;100.00
12969;BME280;6549;53.128;8.182;2023-02-11T08:14:39;102746.13;;;7.08;100.00
12969;BME280;6549;53.128;8.182;2023-02-11T08:17:39;102755.31;;;7.12;100.00
12969;BME280;6549;53.128;8.182;2023-02-11T08:20:40;102763.56;;;7.20;100.00
12969;BME280;6549;53.128;8.182;2023-02-11T08:23:41;102771.13;;;7.23;100.00
12969;BME280;6549;53.128;8.182;2023-02-11T08:26:42;102768.09;;;7.25;100.00
12969;BME280;6549;53.128;8.182;2023-02-11T08:29:42;102777.88;;;7.26;100.00
12969;BME280;6549;53.128;8.182;2023-02-11T08:32:43;102787.56;;;7.32;100.00
12969;BME280;6549;53.128;8.182;2023-02-11T08:35:43;102786.63;;;7.37;100.00
12969;BME280;6549;53.128;8.182;2023-02-11T08:38:43;102790.81;;;7.34;100.00
12969;BME280;6549;53.128;8.182;2023-02-11T08:41:45;102795.81;;;7.41;100.00
12969;BME280;6549;53.128;8.182;2023-02-11T08:44:47;102798.56;;;7.41;100.00
12969;BME280;6549;53.128;8.182;2023-02-11T08:47:47;102809.19;;;7.42;100.00
12969;BME280;6549;53.128;8.182;2023-02-11T08:50:47;102805.00;;;7.45;100.00
12969;BME280;6549;53.128;8.182;2023-02-11T08:53:49;102815.66;;;7.46;100.00
12969;BME280;6549;53.128;8.182;2023-02-11T08:56:50;102815.81;;;7.50;100.00
12969;BME280;6549;53.128;8.182;2023-02-11T08:59:50;102818.25;;;7.51;100.00
12969;BME280;6549;53.128;8.182;2023-02-11T09:02:51;102816.38;;;7.60;100.00
12969;BME280;6549;53.128;8.182;2023-02-11T09:05:51;102826.00;;;7.58;100.00
12969;BME280;6549;53.128;8.182;2023-02-11T09:08:54;102844.16;;;7.54;100.00
12969;BME280;6549;53.128;8.182;2023-02-11T09:11:55;102844.97;;;7.54;100.00
12969;BME280;6549;53.128;8.182;2023-02-11T09:14:56;102852.38;;;7.54;100.00
12969;BME280;6549;53.128;8.182;2023-02-11T09:17:57;102848.81;;;7.53;100.00
12969;BME280;6549;53.128;8.182;2023-02-11T09:21:05;102848.00;;;7.53;100.00
12969;BME280;6549;53.128;8.182;2023-02-11T09:24:06;102843.34;;;7.53;100.00
12969;BME280;6549;53.128;8.182;2023-02-11T09:27:06;102848.81;;;7.53;100.00
12969;BME280;6549;53.128;8.182;2023-02-11T09:30:07;102853.19;;;7.54;100.00
12969;BME280;6549;53.128;8.182;2023-02-11T09:33:08;102857.38;;;7.52;100.00
12969;BME280;6549;53.128;8.182;2023-02-11T09:36:08;102847.41;;;7.56;100.00
12969;BME280;6549;53.128;8.182;2023-02-11T09:39:15;102851.13;;;7.60;100.00
12969;BME280;6549;53.128;8.182;2023-02-11T09:45:29;102864.47;;;7.61;100.00
12969;BME280;6549;53.128;8.182;2023-02-11T09:48:37;102875.25;;;7.58;100.00
12969;BME280;6549;53.128;8.182;2023-02-11T09:51:57;102870.59;;;7.58;100.00
12969;BME280;6549;53.128;8.182;2023-02-11T09:55:04;102885.88;;;7.59;100.00
12969;BME280;6549;53.128;8.182;2023-02-11T09:58:29;102881.06;;;7.56;100.00
12969;BME280;6549;53.128;8.182;2023-02-11T10:02:01;102887.63;;;7.55;100.00
12969;BME280;6549;53.128;8.182;2023-02-11T10:05:20;102881.53;;;7.58;100.00
12969;BME280;6549;53.128;8.182;2023-02-11T10:08:55;102891.06;;;7.61;100.00
12969;BME280;6549;53.128;8.182;2023-02-11T10:12:30;102897.00;;;7.63;100.00
12969;BME280;6549;53.128;8.182;2023-02-11T10:15:48;102902.47;;;7.63;100.00
12969;BME280;6549;53.128;8.182;2023-02-11T10:22:17;102912.34;;;7.73;100.00
12969;BME280;6549;53.128;8.182;2023-02-11T10:28:23;102907.34;;;7.75;100.00
12969;BME280;6549;53.128;8.182;2023-02-11T10:31:35;102902.13;;;7.87;100.00
12969;BME280;6549;53.128;8.182;2023-02-11T10:34:40;102902.13;;;7.87;100.00
12969;BME280;6549;53.128;8.182;2023-02-11T10:37:40;102900.69;;;7.89;100.00
12969;BME280;6549;53.128;8.182;2023-02-11T10:40:40;102906.31;;;7.93;100.00
12969;BME280;6549;53.128;8.182;2023-02-11T10:43:41;102894.13;;;7.99;100.00
12969;BME280;6549;53.128;8.182;2023-02-11T10:46:42;102898.34;;;8.05;100.00
12969;BME280;6549;53.128;8.182;2023-02-11T10:49:44;102890.59;;;8.07;100.00
12969;BME280;6549;53.128;8.182;2023-02-11T10:52:44;102888.84;;;8.11;100.00
12969;BME280;6549;53.128;8.182;2023-02-11T10:55:55;102889.69;;;8.20;100.00
12969;BME280;6549;53.128;8.182;2023-02-11T10:59:01;102893.75;;;8.23;100.00
12969;BME280;6549;53.128;8.182;2023-02-11T11:02:16;102896.66;;;8.26;100.00
12969;BME280;6549;53.128;8.182;2023-02-11T11:05:26;102894.53;;;8.23;100.00
12969;BME280;6549;53.128;8.182;2023-02-11T11:08:43;102908.84;;;8.20;100.00
12969;BME280;6549;53.128;8.182;2023-02-11T11:11:51;102911.13;;;8.18;100.00
12969;BME280;6549;53.128;8.182;2023-02-11T11:14:55;102910.63;;;8.16;100.00
12969;BME280;6549;53.128;8.182;2023-02-11T11:18:16;102907.44;;;8.23;100.00
12969;BME280;6549;53.128;8.182;2023-02-11T11:24:44;102907.59;;;8.26;100.00
12969;BME280;6549;53.128;8.182;2023-02-11T11:27:49;102922.59;;;8.29;100.00
12969;BME280;6549;53.128;8.182;2023-02-11T11:30:51;102933.53;;;8.29;100.00
12969;BME280;6549;53.128;8.182;2023-02-11T11:33:54;102932.16;;;8.31;100.00
12969;BME280;6549;53.128;8.182;2023-02-11T11:36:57;102939.09;;;8.37;100.00
12969;BME280;6549;53.128;8.182;2023-02-11T11:43:17;102939.44;;;8.44;100.00
12969;BME280;6549;53.128;8.182;2023-02-11T11:46:26;102939.75;;;8.43;100.00
12969;BME280;6549;53.128;8.182;2023-02-11T11:49:31;102941.69;;;8.42;100.00
12969;BME280;6549;53.128;8.182;2023-02-11T11:52:44;102944.41;;;8.42;100.00
12969;BME280;6549;53.128;8.182;2023-02-11T11:55:50;102949.25;;;8.45;100.00
12969;BME280;6549;53.128;8.182;2023-02-11T11:58:55;102944.28;;;8.47;100.00
12969;BME280;6549;53.128;8.182;2023-02-11T12:05:36;102940.56;;;8.43;100.00
12969;BME280;6549;53.128;8.182;2023-02-11T12:12:20;102927.19;;;8.50;100.00
12969;BME280;6549;53.128;8.182;2023-02-11T12:15:33;102921.09;;;8.53;100.00
12969;BME280;6549;53.128;8.182;2023-02-11T12:18:52;102926.75;;;8.57;100.00
12969;BME280;6549;53.128;8.182;2023-02-11T12:22:06;102928.66;;;8.56;100.00
12969;BME280;6549;53.128;8.182;2023-02-11T12:25:22;102937.19;;;8.55;100.00
12969;BME280;6549;53.128;8.182;2023-02-11T12:32:22;102929.31;;;8.53;100.00
12969;BME280;6549;53.128;8.182;2023-02-11T12:35:37;102925.44;;;8.54;100.00
12969;BME280;6549;53.128;8.182;2023-02-11T12:39:09;102929.47;;;8.57;100.00
12969;BME280;6549;53.128;8.182;2023-02-11T12:46:33;102927.88;;;8.65;100.00
12969;BME280;6549;53.128;8.182;2023-02-11T12:52:57;102926.09;;;8.69;100.00
12969;BME280;6549;53.128;8.182;2023-02-11T12:56:07;102919.81;;;8.77;100.00
12969;BME280;6549;53.128;8.182;2023-02-11T13:02:42;102906.94;;;8.86;100.00
12969;BME280;6549;53.128;8.182;2023-02-11T13:05:50;102926.13;;;8.86;100.00
12969;BME280;6549;53.128;8.182;2023-02-11T13:08:54;102929.38;;;8.88;100.00
12969;BME280;6549;53.128;8.182;2023-02-11T13:12:01;102928.41;;;8.92;100.00
12969;BME280;6549;53.128;8.182;2023-02-11T13:15:22;102925.50;;;8.97;100.00
12969;BME280;6549;53.128;8.182;2023-02-11T13:18:45;102933.09;;;8.92;100.00
12969;BME280;6549;53.128;8.182;2023-02-11T13:22:00;102933.88;;;8.92;100.00
12969;BME280;6549;53.128;8.182;2023-02-11T13:28:41;102938.25;;;8.85;100.00
12969;BME280;6549;53.128;8.182;2023-02-11T13:32:12;102939.50;;;8.79;100.00
12969;BME280;6549;53.128;8.182;2023-02-11T13:35:35;102944.50;;;8.77;100.00
12969;BME280;6549;53.128;8.182;2023-02-11T13:38:36;102945.16;;;8.74;100.00
12969;BME280;6549;53.128;8.182;2023-02-11T13:41:40;102956.25;;;8.69;100.00
12969;BME280;6549;53.128;8.182;2023-02-11T13:44:40;102959.00;;;8.69;100.00
12969;BME280;6549;53.128;8.182;2023-02-11T13:47:41;102946.41;;;8.68;100.00
12969;BME280;6549;53.128;8.182;2023-02-11T13:50:46;102961.91;;;8.72;100.00
12969;BME280;6549;53.128;8.182;2023-02-11T13:53:57;102965.44;;;8.73;100.00
12969;BME280;6549;53.128;8.182;2023-02-11T14:03:38;102961.13;;;8.72;100.00
12969;BME280;6549;53.128;8.182;2023-02-11T14:10:48;102961.44;;;8.70;100.00
12969;BME280;6549;53.128;8.182;2023-02-11T14:20:01;102963.22;;;8.75;100.00
12969;BME280;6549;53.128;8.182;2023-02-11T14:23:04;102972.56;;;8.74;100.00
12969;BME280;6549;53.128;8.182;2023-02-11T14:32:45;102958.84;;;8.74;100.00
12969;BME280;6549;53.128;8.182;2023-02-11T14:36:04;102958.41;;;8.80;100.00
12969;BME280;6549;53.128;8.182;2023-02-11T14:39:36;102951.75;;;8.73;100.00
12969;BME280;6549;53.128;8.182;2023-02-11T14:42:39;102962.41;;;8.74;100.00
12969;BME280;6549;53.128;8.182;2023-02-11T14:45:49;102964.50;;;8.77;100.00
12969;BME280;6549;53.128;8.182;2023-02-11T14:48:52;102962.88;;;8.76;100.00
12969;BME280;6549;53.128;8.182;2023-02-11T14:51:57;102973.06;;;8.76;100.00
12969;BME280;6549;53.128;8.182;2023-02-11T14:58:18;102976.28;;;8.78;100.00
12969;BME280;6549;53.128;8.182;2023-02-11T15:01:29;102982.41;;;8.75;100.00
12969;BME280;6549;53.128;8.182;2023-02-11T15:04:34;102976.91;;;8.75;100.00
12969;BME280;6549;53.128;8.182;2023-02-11T15:07:35;102989.00;;;8.74;100.00
12969;BME280;6549;53.128;8.182;2023-02-11T15:10:42;102987.06;;;8.74;100.00
12969;BME280;6549;53.128;8.182;2023-02-11T15:13:44;102995.78;;;8.76;100.00
12969;BME280;6549;53.128;8.182;2023-02-11T15:16:49;102994.81;;;8.81;100.00
12969;BME280;6549;53.128;8.182;2023-02-11T15:19:53;103000.97;;;8.86;100.00
12969;BME280;6549;53.128;8.182;2023-02-11T15:22:58;102996.94;;;8.84;100.00
12969;BME280;6549;53.128;8.182;2023-02-11T15:25:59;102999.00;;;8.78;100.00
12969;BME280;6549;53.128;8.182;2023-02-11T15:29:15;103010.47;;;8.72;100.00
12969;BME280;6549;53.128;8.182;2023-02-11T15:32:20;103011.25;;;8.72;100.00
12969;BME280;6549;53.128;8.182;2023-02-11T15:35:21;103019.16;;;8.74;100.00
12969;BME280;6549;53.128;8.182;2023-02-11T15:38:21;103012.53;;;8.66;100.00
12969;BME280;6549;53.128;8.182;2023-02-11T15:41:36;103013.97;;;8.64;100.00
12969;BME280;6549;53.128;8.182;2023-02-11T15:44:37;103016.22;;;8.62;100.00
12969;BME280;6549;53.128;8.182;2023-02-11T15:47:38;103011.56;;;8.62;100.00
12969;BME280;6549;53.128;8.182;2023-02-11T15:50:40;103025.56;;;8.61;100.00
12969;BME280;6549;53.128;8.182;2023-02-11T15:53:41;103027.78;;;8.58;100.00
12969;BME280;6549;53.128;8.182;2023-02-11T15:56:44;103019.75;;;8.53;100.00
12969;BME280;6549;53.128;8.182;2023-02-11T15:59:48;103026.22;;;8.57;100.00
12969;BME280;6549;53.128;8.182;2023-02-11T16:02:50;103032.94;;;8.51;100.00
12969;BME280;6549;53.128;8.182;2023-02-11T16:05:51;103031.16;;;8.47;100.00
12969;BME280;6549;53.128;8.182;2023-02-11T16:08:56;103039.66;;;8.45;100.00
12969;BME280;6549;53.128;8.182;2023-02-11T16:11:58;103041.13;;;8.43;100.00
12969;BME280;6549;53.128;8.182;2023-02-11T16:15:05;103044.97;;;8.42;100.00
12969;BME280;6549;53.128;8.182;2023-02-11T16:21:34;103041.25;;;8.38;100.00
12969;BME280;6549;53.128;8.182;2023-02-11T16:24:38;103047.84;;;8.37;100.00
12969;BME280;6549;53.128;8.182;2023-02-11T16:27:40;103056.56;;;8.39;100.00
12969;BME280;6549;53.128;8.182;2023-02-11T16:30:41;103056.41;;;8.35;100.00
12969;BME280;6549;53.128;8.182;2023-02-11T16:33:42;103060.25;;;8.34;100.00
12969;BME280;6549;53.128;8.182;2023-02-11T16:36:42;103053.16;;;8.33;100.00
12969;BME280;6549;53.128;8.182;2023-02-11T16:39:43;103050.13;;;8.35;100.00
12969;BME280;6549;53.128;8.182;2023-02-11T16:42:43;103046.69;;;8.29;100.00
12969;BME280;6549;53.128;8.182;2023-02-11T16:45:44;103050.25;;;8.30;100.00
12969;BME280;6549;53.128;8.182;2023-02-11T16:48:45;103046.97;;;8.28;100.00
12969;BME280;6549;53.128;8.182;2023-02-11T16:51:47;103062.25;;;8.20;100.00
12969;BME280;6549;53.128;8.182;2023-02-11T16:54:48;103059.50;;;8.20;100.00
12969;BME280;6549;53.128;8.182;2023-02-11T16:57:49;103057.56;;;8.21;100.00
12969;BME280;6549;53.128;8.182;2023-02-11T17:00:49;103052.41;;;8.19;100.00
12969;BME280;6549;53.128;8.182;2023-02-11T17:03:50;103062.88;;;8.17;100.00
12969;BME280;6549;53.128;8.182;2023-02-11T17:06:51;103068.47;;;8.12;100.00
12969;BME280;6549;53.128;8.182;2023-02-11T17:09:51;103069.91;;;8.09;100.00
12969;BME280;6549;53.128;8.182;2023-02-11T17:12:51;103069.09;;;8.09;100.00
12969;BME280;6549;53.128;8.182;2023-02-11T17:15:52;103082.28;;;8.07;100.00
12969;BME280;6549;53.128;8.182;2023-02-11T17:18:52;103087.75;;;8.07;100.00
12969;BME280;6549;53.128;8.182;2023-02-11T17:21:53;103078.75;;;8.06;100.00
12969;BME280;6549;53.128;8.182;2023-02-11T17:24:54;103086.66;;;8.08;100.00
12969;BME280;6549;53.128;8.182;2023-02-11T17:27:57;103082.09;;;8.03;100.00
12969;BME280;6549;53.128;8.182;2023-02-11T17:30:58;103094.00;;;7.99;100.00
12969;BME280;6549;53.128;8.182;2023-02-11T17:33:59;103097.38;;;7.96;100.00
12969;BME280;6549;53.128;8.182;2023-02-11T17:36:59;103099.59;;;7.94;100.00
12969;BME280;6549;53.128;8.182;2023-02-11T17:40:02;103104.06;;;7.90;100.00
12969;BME280;6549;53.128;8.182;2023-02-11T17:43:03;103101.97;;;7.87;100.00
12969;BME280;6549;53.128;8.182;2023-02-11T17:46:07;103104.69;;;7.87;100.00
12969;BME280;6549;53.128;8.182;2023-02-11T17:49:09;103110.97;;;7.87;100.00